Time;durP1;ratioP1;P1;durP2;ratioP2;P2;SDS_P1;SDS_P2;PMS_P1;PMS_P2;Temp;Humidity;BMP_temperature;BMP_pressure;BME280_temperature;BME280_humidity;BME280_pressure;Samples;Min_cycle;Max_cycle;Signal;HPM_P1;HPM_P2
2023/07/09 00:02:03;;;;;;;6.10;5.60;;;31.80;50.50;;;;;;5038447;28;20415;-83
2023/07/09 00:04:29;;;;;;;5.90;5.30;;;31.80;50.50;;;;;;5055096;28;21037;-83
2023/07/09 00:06:58;;;;;;;6.73;6.10;;;31.80;50.60;;;;;;5054485;28;20489;-84
2023/07/09 00:09:24;;;;;;;8.13;6.57;;;31.80;50.60;;;;;;5055209;28;20250;-84
2023/07/09 00:11:50;;;;;;;7.40;6.73;;;31.80;50.70;;;;;;5054657;28;20945;-84
2023/07/09 00:14:16;;;;;;;6.50;5.90;;;31.70;51.20;;;;;;5055007;28;20183;-84
2023/07/09 00:16:44;;;;;;;7.70;5.97;;;31.70;50.70;;;;;;5054773;28;20422;-84
2023/07/09 00:19:18;;;;;;;6.77;6.03;;;31.70;50.70;;;;;;5059171;28;20509;-84
2023/07/09 00:21:53;;;;;;;9.90;6.27;;;31.70;50.80;;;;;;5074200;28;20511;-83
2023/07/09 00:24:23;;;;;;;6.63;6.07;;;31.70;50.80;;;;;;5073129;28;20456;-83
2023/07/09 00:26:54;;;;;;;6.90;6.30;;;31.60;50.80;;;;;;5054954;28;20442;-84
2023/07/09 00:29:20;;;;;;;6.23;5.63;;;31.60;50.90;;;;;;5021037;28;20438;-84
2023/07/09 00:31:49;;;;;;;7.87;5.53;;;31.60;51.00;;;;;;5037526;28;20422;-84
2023/07/09 00:34:17;;;;;;;6.20;5.60;;;31.60;51.00;;;;;;5053695;28;20348;-83
2023/07/09 00:36:43;;;;;;;6.10;5.60;;;31.60;51.10;;;;;;5037474;28;20437;-83
2023/07/09 00:39:19;;;;;;;6.60;6.00;;;31.50;51.00;;;;;;5053851;28;20529;-84
2023/07/09 00:41:46;;;;;;;6.97;5.87;;;31.50;51.10;;;;;;5053612;28;20759;-84
2023/07/09 00:44:33;;;;;;;6.10;5.50;;;31.50;51.10;;;;;;5053388;28;20450;-84
2023/07/09 00:47:02;;;;;;;6.43;5.90;;;31.50;51.20;;;;;;5037292;28;20429;-84
2023/07/09 00:49:41;;;;;;;6.90;5.60;;;31.50;51.30;;;;;;5037428;28;20431;-84
2023/07/09 00:52:35;;;;;;;6.47;5.87;;;31.50;51.30;;;;;;5053630;28;20460;-84
2023/07/09 00:55:16;;;;;;;6.47;5.80;;;31.40;51.30;;;;;;5053587;28;20391;-84
2023/07/09 00:57:55;;;;;;;6.40;5.90;;;31.40;51.90;;;;;;5053374;28;20480;-84
2023/07/09 01:00:42;;;;;;;6.90;5.37;;;31.40;51.40;;;;;;5053543;28;20921;-84
2023/07/09 01:03:11;;;;;;;7.03;6.43;;;31.30;51.40;;;;;;5053983;28;20906;-83
2023/07/09 01:05:38;;;;;;;6.00;5.43;;;31.30;51.40;;;;;;5053271;28;20783;-84
2023/07/09 01:08:05;;;;;;;7.07;5.80;;;31.30;51.50;;;;;;5020256;28;20446;-84
2023/07/09 01:10:31;;;;;;;6.40;5.83;;;31.30;51.50;;;;;;5053097;28;20484;-84
2023/07/09 01:13:03;;;;;;;7.53;6.37;;;31.30;51.60;;;;;;5053472;28;20460;-84
2023/07/09 01:15:33;;;;;;;6.57;5.97;;;31.30;51.60;;;;;;5052858;28;20438;-84
2023/07/09 01:18:01;;;;;;;6.60;5.83;;;31.20;51.60;;;;;;5037043;28;20810;-83
2023/07/09 01:20:27;;;;;;;11.40;6.50;;;31.20;52.10;;;;;;5053613;28;20522;-84
2023/07/09 01:22:56;;;;;;;8.53;6.83;;;31.20;52.00;;;;;;5036840;28;20458;-85
2023/07/09 01:25:30;;;;;;;7.30;6.17;;;31.10;52.10;;;;;;5037080;28;20216;-83
2023/07/09 01:28:00;;;;;;;9.07;6.73;;;31.00;52.10;;;;;;5020489;28;20497;-84
2023/07/09 01:30:44;;;;;;;7.43;6.40;;;31.00;52.20;;;;;;5053027;28;20415;-84
2023/07/09 01:33:15;;;;;;;7.30;6.43;;;31.00;52.20;;;;;;5053361;28;20494;-83
2023/07/09 01:35:46;;;;;;;6.73;5.80;;;31.00;52.20;;;;;;5036481;28;20422;-84
2023/07/09 01:38:12;;;;;;;6.87;5.90;;;30.90;52.10;;;;;;5053563;28;20439;-84
2023/07/09 01:40:40;;;;;;;7.90;6.70;;;31.00;52.30;;;;;;5053025;28;20422;-84
2023/07/09 01:43:07;;;;;;;6.70;5.60;;;30.90;52.20;;;;;;5036734;28;20207;-84
2023/07/09 01:45:35;;;;;;;7.87;6.53;;;30.90;52.30;;;;;;5053185;28;20462;-85
2023/07/09 01:48:02;;;;;;;6.60;5.97;;;30.90;52.30;;;;;;5036707;28;20414;-84
2023/07/09 01:50:28;;;;;;;7.43;6.30;;;30.90;52.30;;;;;;5068650;28;20418;-83
2023/07/09 01:52:59;;;;;;;7.53;6.83;;;30.90;52.30;;;;;;5074099;28;20425;-84
2023/07/09 01:55:29;;;;;;;6.40;5.63;;;30.90;52.40;;;;;;5042140;28;20825;-84
2023/07/09 01:57:56;;;;;;;6.67;6.00;;;30.90;52.40;;;;;;5035324;28;20426;-84
2023/07/09 02:00:25;;;;;;;7.90;5.43;;;30.80;52.40;;;;;;5035602;28;20446;-83
2023/07/09 02:02:56;;;;;;;11.20;6.40;;;30.80;52.40;;;;;;5051770;28;20427;-83
2023/07/09 02:05:24;;;;;;;7.50;5.80;;;30.80;52.50;;;;;;5051409;28;20883;-82
2023/07/09 02:07:53;;;;;;;5.97;5.47;;;30.80;52.50;;;;;;5034624;28;20430;-82
2023/07/09 02:10:22;;;;;;;5.97;5.40;;;30.80;52.50;;;;;;5034944;28;21134;-82
2023/07/09 02:12:48;;;;;;;6.73;6.23;;;30.80;52.50;;;;;;5034750;28;20817;-82
2023/07/09 02:15:17;;;;;;;6.27;5.77;;;30.80;52.50;;;;;;5035482;28;20737;-82
2023/07/09 02:17:44;;;;;;;6.53;5.87;;;30.80;52.60;;;;;;5034767;28;20959;-82
2023/07/09 02:20:11;;;;;;;7.37;6.03;;;30.70;52.50;;;;;;5052637;28;20435;-82
2023/07/09 02:22:38;;;;;;;6.40;5.80;;;30.80;52.70;;;;;;5036227;28;20551;-82
2023/07/09 02:25:08;;;;;;;7.10;5.33;;;30.70;52.60;;;;;;5053810;28;20600;-83
2023/07/09 02:27:38;;;;;;;7.17;6.30;;;30.70;52.70;;;;;;5052838;28;20422;-82
2023/07/09 02:30:08;;;;;;;8.30;6.20;;;30.70;52.70;;;;;;5036100;28;20442;-82
2023/07/09 02:32:34;;;;;;;6.10;5.50;;;30.70;52.70;;;;;;5052581;28;20423;-82
2023/07/09 02:35:00;;;;;;;6.60;5.70;;;30.60;52.70;;;;;;5053662;28;20434;-83
2023/07/09 02:37:28;;;;;;;7.90;6.17;;;30.60;52.70;;;;;;5052744;28;20742;-82
2023/07/09 02:39:57;;;;;;;6.63;6.03;;;30.60;52.80;;;;;;5036105;28;20262;-82
2023/07/09 02:42:23;;;;;;;6.53;5.57;;;30.60;52.80;;;;;;5036339;28;20431;-82
2023/07/09 02:44:50;;;;;;;7.73;6.27;;;30.60;52.90;;;;;;5052451;28;20485;-83
2023/07/09 02:47:17;;;;;;;6.40;5.80;;;30.50;52.80;;;;;;5035722;28;20457;-82
2023/07/09 02:49:44;;;;;;;6.77;6.17;;;30.50;52.90;;;;;;5026850;28;20764;-83
2023/07/09 02:52:10;;;;;;;7.27;6.30;;;30.50;52.90;;;;;;5056152;28;20494;-82
2023/07/09 02:54:36;;;;;;;6.83;6.07;;;30.50;53.00;;;;;;5056212;28;20206;-82
2023/07/09 02:57:04;;;;;;;7.23;6.27;;;30.50;53.00;;;;;;5056020;28;20187;-82
2023/07/09 02:59:33;;;;;;;6.83;5.40;;;30.50;53.10;;;;;;5039228;28;20554;-83
2023/07/09 03:01:59;;;;;;;6.97;6.27;;;30.40;53.00;;;;;;5055815;28;20426;-82
2023/07/09 03:04:28;;;;;;;8.27;6.43;;;30.40;53.10;;;;;;5055694;28;20474;-83
2023/07/09 03:07:00;;;;;;;5.70;5.20;;;30.40;53.10;;;;;;5040258;28;20502;-82
2023/07/09 03:09:30;;;;;;;9.30;5.80;;;30.40;53.10;;;;;;5039657;28;20410;-82
2023/07/09 03:11:58;;;;;;;6.13;5.30;;;30.40;53.10;;;;;;5055773;28;20438;-82
2023/07/09 03:14:26;;;;;;;7.27;6.60;;;30.30;53.10;;;;;;5055778;28;20415;-82
2023/07/09 03:16:57;;;;;;;6.80;5.97;;;30.40;53.30;;;;;;5055598;28;20780;-82
2023/07/09 03:19:23;;;;;;;5.83;5.23;;;30.40;53.30;;;;;;5039721;28;20482;-83
2023/07/09 03:21:48;;;;;;;6.57;5.90;;;30.30;53.30;;;;;;5057065;28;20517;-82
2023/07/09 03:24:18;;;;;;;7.23;5.70;;;30.30;53.30;;;;;;5038830;28;20442;-82
2023/07/09 03:26:45;;;;;;;6.17;5.57;;;30.30;53.30;;;;;;5055408;28;20426;-82
2023/07/09 03:29:16;;;;;;;7.00;6.33;;;30.30;53.40;;;;;;5055350;28;20494;-82
2023/07/09 03:31:45;;;;;;;6.97;6.27;;;30.20;53.40;;;;;;5056225;28;20586;-82
2023/07/09 03:34:11;;;;;;;6.80;6.10;;;30.20;53.40;;;;;;5038800;28;20915;-83
2023/07/09 03:36:37;;;;;;;6.37;5.60;;;30.20;53.50;;;;;;5037639;28;20432;-83
2023/07/09 03:39:08;;;;;;;6.90;6.20;;;30.20;53.60;;;;;;5063072;28;20438;-83
2023/07/09 03:41:34;;;;;;;6.00;5.40;;;30.20;53.50;;;;;;5038566;28;20410;-82
2023/07/09 03:44:02;;;;;;;6.47;5.83;;;30.20;53.60;;;;;;5055011;28;20449;-82
2023/07/09 03:46:40;;;;;;;6.00;5.50;;;30.10;53.60;;;;;;5054799;28;20184;-83
2023/07/09 03:49:10;;;;;;;6.90;6.20;;;30.10;53.60;;;;;;5038222;28;20517;-83
2023/07/09 03:51:37;;;;;;;6.83;5.70;;;30.10;53.70;;;;;;5053916;28;20453;-82
2023/07/09 03:54:03;;;;;;;6.80;5.60;;;30.10;53.70;;;;;;5054342;28;20990;-83
2023/07/09 03:56:29;;;;;;;6.00;5.40;;;30.10;53.80;;;;;;5053871;28;20180;-82
2023/07/09 03:58:55;;;;;;;6.37;5.77;;;30.10;53.80;;;;;;5054802;28;20951;-82
2023/07/09 04:01:21;;;;;;;6.30;5.70;;;30.00;53.70;;;;;;5036775;28;20214;-82
2023/07/09 04:03:47;;;;;;;7.10;5.73;;;30.00;53.80;;;;;;5053615;28;20211;-82
2023/07/09 04:06:16;;;;;;;6.13;5.60;;;30.00;53.80;;;;;;5053467;28;20486;-82
2023/07/09 04:08:44;;;;;;;7.00;5.83;;;30.00;53.90;;;;;;5053382;28;20195;-81
2023/07/09 04:11:10;;;;;;;7.80;5.60;;;30.00;53.90;;;;;;5037080;28;20453;-83
2023/07/09 04:13:40;;;;;;;7.53;6.00;;;29.90;53.80;;;;;;5036880;28;20716;-82
2023/07/09 04:16:06;;;;;;;5.63;5.13;;;29.90;53.90;;;;;;5053427;28;20881;-83
2023/07/09 04:18:37;;;;;;;9.90;5.97;;;29.90;53.90;;;;;;5054218;28;20454;-83
2023/07/09 04:21:03;;;;;;;6.53;5.83;;;29.90;54.00;;;;;;5021983;28;20520;-82
2023/07/09 04:23:29;;;;;;;5.97;5.37;;;29.90;54.00;;;;;;5036800;28;20437;-82
2023/07/09 04:25:55;;;;;;;6.93;5.77;;;29.90;54.10;;;;;;5054186;28;20553;-82
2023/07/09 04:28:49;;;;;;;7.03;6.07;;;29.80;54.10;;;;;;5053182;28;20601;-83
2023/07/09 04:31:15;;;;;;;6.03;5.53;;;29.80;54.20;;;;;;5037447;28;20521;-82
2023/07/09 04:33:41;;;;;;;6.73;6.13;;;29.80;54.20;;;;;;5063531;28;20434;-83
2023/07/09 04:36:09;;;;;;;6.63;6.03;;;29.80;54.30;;;;;;5037151;28;20624;-83
2023/07/09 04:38:37;;;;;;;6.47;5.70;;;29.80;54.30;;;;;;5053183;28;20602;-82
2023/07/09 04:41:05;;;;;;;6.20;5.70;;;29.70;54.30;;;;;;5036204;28;20426;-82
2023/07/09 04:43:35;;;;;;;6.80;5.33;;;29.70;54.30;;;;;;5053143;28;20204;-83
2023/07/09 04:46:01;;;;;;;7.07;6.33;;;29.70;54.40;;;;;;5044318;28;20803;-82
2023/07/09 04:48:29;;;;;;;6.63;5.43;;;29.70;54.40;;;;;;5033551;28;20203;-82
2023/07/09 04:50:59;;;;;;;6.83;6.13;;;29.70;54.40;;;;;;5033873;28;20463;-83
2023/07/09 04:53:27;;;;;;;6.77;6.13;;;29.70;54.50;;;;;;5033209;28;20555;-83
2023/07/09 04:55:54;;;;;;;6.70;6.00;;;29.70;54.90;;;;;;5028942;28;20451;-82
2023/07/09 04:58:20;;;;;;;6.90;6.20;;;29.60;54.50;;;;;;5036062;28;20526;-82
2023/07/09 05:00:46;;;;;;;6.27;5.70;;;29.60;54.60;;;;;;5036203;28;20541;-84
2023/07/09 05:03:16;;;;;;;6.83;6.00;;;29.60;54.70;;;;;;5036449;28;20441;-83
2023/07/09 05:05:46;;;;;;;6.93;6.20;;;29.60;54.90;;;;;;5052686;28;20535;-83
2023/07/09 05:08:15;;;;;;;6.77;6.17;;;29.60;54.80;;;;;;5053872;28;20463;-83
2023/07/09 05:10:49;;;;;;;7.00;6.40;;;29.60;55.00;;;;;;5035931;28;20402;-84
2023/07/09 05:13:16;;;;;;;6.73;6.13;;;29.60;54.90;;;;;;5051880;28;20462;-83
2023/07/09 05:15:46;;;;;;;6.00;5.40;;;29.60;54.90;;;;;;5052889;28;20430;-83
2023/07/09 05:18:16;;;;;;;6.33;5.73;;;29.50;55.00;;;;;;5052546;28;20449;-83
2023/07/09 05:20:43;;;;;;;6.57;5.97;;;29.60;55.00;;;;;;5070874;28;20433;-84
2023/07/09 05:23:12;;;;;;;7.47;6.73;;;29.50;54.90;;;;;;5067178;28;20521;-84
2023/07/09 05:25:38;;;;;;;7.33;6.10;;;29.50;55.00;;;;;;5052185;28;20567;-84
2023/07/09 05:28:05;;;;;;;6.50;5.80;;;29.50;54.90;;;;;;5052705;28;20407;-84
2023/07/09 05:30:36;;;;;;;7.33;5.90;;;29.50;55.00;;;;;;5054479;28;20450;-83
2023/07/09 05:33:06;;;;;;;6.80;5.73;;;29.50;54.90;;;;;;5059376;28;20417;-84
2023/07/09 05:35:32;;;;;;;6.00;5.50;;;29.50;54.90;;;;;;5058355;28;20753;-83
2023/07/09 05:37:58;;;;;;;6.47;5.87;;;29.50;54.90;;;;;;5053620;28;20415;-83
2023/07/09 05:40:26;;;;;;;9.53;5.63;;;29.50;55.00;;;;;;5036758;28;20188;-83
2023/07/09 05:42:54;;;;;;;6.60;6.00;;;29.50;55.00;;;;;;5033916;28;20966;-85
2023/07/09 05:45:25;;;;;;;7.10;5.87;;;29.50;54.90;;;;;;5053421;28;20582;-84
2023/07/09 05:47:53;;;;;;;7.17;5.80;;;29.40;54.90;;;;;;5052541;28;20414;-83
2023/07/09 05:50:22;;;;;;;6.80;6.10;;;29.40;54.90;;;;;;5052058;28;21135;-84
2023/07/09 05:52:50;;;;;;;7.90;6.37;;;29.40;55.00;;;;;;5051955;28;20459;-83
2023/07/09 05:55:16;;;;;;;6.00;5.47;;;29.40;54.90;;;;;;5052037;28;20957;-84
2023/07/09 05:57:42;;;;;;;8.27;5.97;;;29.40;54.90;;;;;;5052394;28;20422;-84
2023/07/09 06:00:13;;;;;;;6.33;5.73;;;29.40;55.00;;;;;;5052322;28;20463;-83
2023/07/09 06:02:43;;;;;;;6.50;5.90;;;29.40;55.00;;;;;;5052916;28;20855;-83
2023/07/09 06:05:13;;;;;;;6.30;5.70;;;29.40;55.00;;;;;;5019190;28;20481;-84
2023/07/09 06:07:42;;;;;;;6.10;5.50;;;29.40;55.00;;;;;;5052302;28;20395;-84
2023/07/09 06:10:09;;;;;;;5.97;5.37;;;29.40;54.90;;;;;;5052914;28;20460;-83
2023/07/09 06:12:38;;;;;;;6.83;6.23;;;29.40;55.00;;;;;;5019073;28;20492;-84
2023/07/09 06:15:06;;;;;;;6.63;5.77;;;29.40;55.00;;;;;;5054843;28;20422;-84
2023/07/09 06:17:34;;;;;;;5.73;5.20;;;29.40;55.00;;;;;;5072189;28;20526;-83
2023/07/09 06:20:02;;;;;;;7.70;6.07;;;29.30;55.00;;;;;;5042274;28;20481;-84
2023/07/09 06:22:28;;;;;;;6.33;5.73;;;29.40;55.10;;;;;;5053088;28;20421;-84
2023/07/09 06:24:54;;;;;;;7.00;5.67;;;29.30;55.00;;;;;;5055015;28;20454;-83
2023/07/09 06:27:23;;;;;;;6.73;6.13;;;29.30;55.00;;;;;;5055769;28;20203;-83
2023/07/09 06:29:54;;;;;;;7.67;5.70;;;29.30;55.10;;;;;;5039261;28;20466;-83
2023/07/09 06:32:20;;;;;;;6.93;6.10;;;29.30;55.10;;;;;;5056732;28;20472;-83
2023/07/09 06:34:46;;;;;;;6.40;5.80;;;29.30;55.10;;;;;;5055707;28;20841;-83
2023/07/09 06:37:12;;;;;;;6.77;6.03;;;29.30;55.10;;;;;;5057507;28;20267;-84
2023/07/09 06:39:40;;;;;;;6.50;5.90;;;29.40;55.10;;;;;;5059049;28;20418;-84
2023/07/09 06:42:08;;;;;;;6.47;5.90;;;29.30;55.00;;;;;;5057377;28;20461;-83
2023/07/09 06:44:54;;;;;;;5.97;5.47;;;29.30;55.00;;;;;;5044710;28;20462;-84
2023/07/09 06:47:20;;;;;;;6.97;6.27;;;29.30;55.00;;;;;;5060855;28;20470;-84
2023/07/09 06:49:48;;;;;;;6.10;5.50;;;29.30;54.90;;;;;;5062100;28;20587;-84
2023/07/09 06:52:14;;;;;;;6.40;5.80;;;29.30;54.90;;;;;;5056392;28;20462;-88
2023/07/09 06:54:40;;;;;;;6.40;5.80;;;29.30;54.90;;;;;;5057487;28;20430;-88
2023/07/09 06:57:08;;;;;;;6.83;6.30;;;29.30;54.90;;;;;;5040643;28;20211;-88
2023/07/09 06:59:37;;;;;;;6.30;5.73;;;29.30;54.80;;;;;;5041132;28;20777;-88
2023/07/09 07:02:06;;;;;;;6.83;6.13;;;29.30;54.80;;;;;;5041311;28;20423;-88
2023/07/09 07:04:34;;;;;;;6.13;5.63;;;29.30;54.80;;;;;;5024041;28;21232;-88
2023/07/09 07:07:03;;;;;;;7.07;6.47;;;29.30;54.80;;;;;;5059521;28;20402;-88
2023/07/09 07:09:28;;;;;;;7.07;6.37;;;29.40;54.80;;;;;;5048853;28;20435;-88
2023/07/09 07:11:57;;;;;;;6.37;5.77;;;29.30;54.80;;;;;;5047189;28;20458;-88
2023/07/09 07:14:25;;;;;;;7.20;6.10;;;29.40;54.90;;;;;;5025855;28;20180;-87
2023/07/09 07:16:51;;;;;;;6.40;5.80;;;29.40;54.90;;;;;;5060890;28;20454;-88
2023/07/09 07:19:22;;;;;;;7.03;6.37;;;29.40;54.90;;;;;;5041379;28;20548;-89
2023/07/09 07:21:51;;;;;;;8.60;5.30;;;29.40;54.90;;;;;;5042070;28;20457;-90
2023/07/09 07:24:24;;;;;;;10.50;6.73;;;29.40;55.00;;;;;;5042621;28;20423;-87
2023/07/09 07:26:50;;;;;;;10.90;6.57;;;29.40;55.00;;;;;;5043320;28;20464;-87
2023/07/09 07:29:16;;;;;;;6.97;6.27;;;29.40;55.00;;;;;;5051390;28;20434;-88
2023/07/09 07:31:45;;;;;;;7.00;6.30;;;29.40;55.10;;;;;;5050474;28;20442;-88
2023/07/09 07:34:13;;;;;;;8.00;6.63;;;29.40;55.30;;;;;;5041135;28;20442;-88
2023/07/09 07:36:39;;;;;;;5.87;5.37;;;29.40;55.50;;;;;;5053713;28;20425;-89
2023/07/09 07:39:08;;;;;;;6.80;6.10;;;29.40;55.40;;;;;;5055878;28;20452;-87
2023/07/09 07:41:36;;;;;;;7.43;6.03;;;29.40;55.40;;;;;;5038233;28;20198;-89
2023/07/09 07:44:07;;;;;;;7.07;5.47;;;29.50;55.70;;;;;;5034438;28;20525;-90
2023/07/09 07:46:34;;;;;;;8.93;6.50;;;29.50;55.50;;;;;;5060225;28;20927;-90
2023/07/09 07:49:01;;;;;;;6.87;6.27;;;29.50;55.60;;;;;;5040803;28;20458;-89
2023/07/09 07:51:29;;;;;;;7.70;6.40;;;29.50;55.70;;;;;;5057948;28;20746;-89
2023/07/09 07:53:59;;;;;;;5.80;5.30;;;29.50;55.70;;;;;;5039642;28;20160;-89
2023/07/09 07:56:27;;;;;;;6.33;5.63;;;29.50;55.80;;;;;;5019490;28;20534;-87
2023/07/09 07:58:55;;;;;;;6.30;5.70;;;29.50;55.90;;;;;;5053927;28;20434;-89
2023/07/09 08:01:21;;;;;;;6.77;6.07;;;29.50;55.90;;;;;;5021894;28;20518;-89
2023/07/09 08:03:49;;;;;;;6.53;5.93;;;29.60;55.90;;;;;;5054609;28;20491;-89
2023/07/09 08:06:15;;;;;;;6.83;6.23;;;29.60;56.00;;;;;;5021031;28;20450;-89
2023/07/09 08:08:42;;;;;;;6.73;6.10;;;29.60;55.80;;;;;;5021559;28;20442;-89
2023/07/09 08:11:12;;;;;;;6.63;6.00;;;29.60;55.80;;;;;;5021375;28;20512;-89
2023/07/09 08:13:38;;;;;;;7.00;6.30;;;29.60;55.90;;;;;;5044750;28;20421;-88
2023/07/09 08:16:08;;;;;;;6.70;6.10;;;29.60;56.20;;;;;;5041052;28;20466;-89
2023/07/09 08:18:34;;;;;;;6.87;6.20;;;29.70;56.30;;;;;;5021304;28;20437;-89
2023/07/09 08:21:00;;;;;;;6.57;5.97;;;29.70;56.30;;;;;;5018560;28;20461;-87
2023/07/09 08:23:26;;;;;;;7.00;6.30;;;29.70;56.30;;;;;;5034099;28;20435;-89
2023/07/09 08:26:01;;;;;;;6.63;6.03;;;29.70;56.20;;;;;;5033938;28;20855;-89
2023/07/09 08:28:27;;;;;;;6.90;6.23;;;29.70;56.30;;;;;;5017176;28;20480;-88
2023/07/09 08:30:56;;;;;;;7.77;6.97;;;29.70;56.30;;;;;;5016707;28;21027;-88
2023/07/09 08:33:23;;;;;;;7.80;6.80;;;29.70;56.30;;;;;;5001203;28;20456;-88
2023/07/09 08:35:50;;;;;;;8.67;6.53;;;29.80;56.40;;;;;;5000859;28;20431;-87
2023/07/09 08:38:18;;;;;;;7.43;6.80;;;29.80;56.30;;;;;;5017547;28;20742;-87
2023/07/09 08:41:17;;;;;;;6.50;5.70;;;29.80;56.40;;;;;;5033917;28;20426;-88
2023/07/09 08:43:52;;;;;;;7.70;6.10;;;29.80;56.50;;;;;;5053189;28;20422;-88
2023/07/09 08:46:51;;;;;;;7.03;6.33;;;29.80;56.40;;;;;;5036640;28;20833;-86
2023/07/09 08:50:03;;;;;;;7.53;6.10;;;29.90;56.50;;;;;;5036988;28;20823;-87
2023/07/09 08:52:38;;;;;;;6.60;5.90;;;29.90;56.50;;;;;;5012007;28;20450;-88
2023/07/09 08:55:40;;;;;;;6.63;5.73;;;29.90;56.50;;;;;;5036898;28;20495;-86
2023/07/09 08:58:23;;;;;;;7.43;6.73;;;29.90;56.60;;;;;;5025644;28;20555;-88
2023/07/09 09:00:54;;;;;;;7.07;6.43;;;29.90;56.50;;;;;;5053567;28;20419;-88
2023/07/09 09:03:45;;;;;;;6.90;6.17;;;30.00;56.60;;;;;;5053255;28;20461;-89
2023/07/09 09:06:36;;;;;;;6.63;6.03;;;30.00;56.60;;;;;;5053487;28;20551;-90
2023/07/09 09:09:21;;;;;;;6.67;6.07;;;30.00;56.50;;;;;;5037068;28;20457;-89
2023/07/09 09:12:17;;;;;;;7.90;7.10;;;30.10;56.70;;;;;;5037435;28;20418;-88
2023/07/09 09:14:49;;;;;;;7.23;6.53;;;30.10;56.80;;;;;;5037022;28;20491;-90
2023/07/09 09:17:20;;;;;;;7.73;6.83;;;30.10;56.80;;;;;;5020768;28;20849;-90
2023/07/09 09:19:59;;;;;;;7.53;6.83;;;30.10;56.80;;;;;;5022801;28;20446;-90
2023/07/09 09:22:42;;;;;;;7.30;6.70;;;30.20;56.80;;;;;;5054470;28;20430;-89
2023/07/09 09:25:31;;;;;;;7.00;6.30;;;30.20;56.80;;;;;;5053509;28;20478;-88
2023/07/09 09:27:59;;;;;;;6.97;6.30;;;30.20;56.80;;;;;;5021082;28;20426;-89
2023/07/09 09:30:25;;;;;;;7.30;6.53;;;30.30;56.80;;;;;;5022907;28;20449;-88
2023/07/09 09:32:56;;;;;;;7.63;6.97;;;30.30;56.70;;;;;;5061411;28;20501;-87
2023/07/09 09:35:34;;;;;;;7.43;6.73;;;30.30;56.60;;;;;;5053322;28;20458;-88
2023/07/09 09:38:01;;;;;;;8.17;7.47;;;30.30;56.60;;;;;;5036337;28;20480;-88
2023/07/09 09:40:34;;;;;;;6.57;6.07;;;30.40;56.70;;;;;;5025733;28;20453;-87
2023/07/09 09:43:02;;;;;;;7.03;6.43;;;30.40;56.60;;;;;;5042935;28;20525;-89
2023/07/09 09:45:41;;;;;;;6.83;6.23;;;30.40;56.50;;;;;;5026737;28;20775;-87
2023/07/09 09:48:30;;;;;;;8.03;7.03;;;30.40;56.40;;;;;;5053165;28;20430;-86
2023/07/09 09:51:00;;;;;;;6.87;6.30;;;30.50;56.40;;;;;;5072469;28;20442;-87
2023/07/09 09:53:30;;;;;;;8.87;6.70;;;30.50;56.40;;;;;;5037345;28;20434;-88
2023/07/09 09:55:56;;;;;;;6.97;6.37;;;30.60;56.40;;;;;;5042261;28;21074;-87
2023/07/09 09:58:30;;;;;;;6.90;6.20;;;30.60;56.30;;;;;;5057714;28;20422;-87
2023/07/09 10:00:58;;;;;;;7.27;6.47;;;30.60;56.30;;;;;;5040802;28;20480;-88
2023/07/09 10:03:38;;;;;;;6.30;5.80;;;30.70;56.30;;;;;;5023761;28;20533;-88
2023/07/09 10:06:21;;;;;;;6.60;6.10;;;30.70;56.20;;;;;;5039885;28;20552;-87
2023/07/09 10:08:59;;;;;;;6.73;6.13;;;30.80;56.20;;;;;;5024344;28;20469;-88
2023/07/09 10:11:28;;;;;;;6.80;6.20;;;30.80;56.20;;;;;;5023424;28;21156;-87
2023/07/09 10:14:03;;;;;;;10.33;6.73;;;30.80;56.20;;;;;;5039446;28;20440;-87
2023/07/09 10:16:37;;;;;;;7.93;6.77;;;30.90;56.20;;;;;;5023574;28;20468;-87
2023/07/09 10:19:08;;;;;;;7.30;6.60;;;30.90;56.10;;;;;;5057274;28;20429;-87
2023/07/09 10:21:41;;;;;;;7.40;6.80;;;30.90;56.10;;;;;;5062471;28;20454;-86
2023/07/09 10:24:38;;;;;;;7.17;6.47;;;31.00;56.10;;;;;;5031950;28;20561;-91
2023/07/09 10:27:12;;;;;;;7.33;6.70;;;31.00;56.00;;;;;;5028554;28;20548;-90
2023/07/09 10:29:57;;;;;;;6.90;6.30;;;31.00;55.90;;;;;;5025511;28;20430;-89
2023/07/09 10:33:02;;;;;;;7.93;7.23;;;31.10;55.90;;;;;;5023904;28;20423;-90
2023/07/09 10:35:34;;;;;;;7.27;6.67;;;31.10;55.80;;;;;;5038377;28;20466;-90
2023/07/09 10:38:12;;;;;;;7.00;6.40;;;31.20;55.70;;;;;;5037406;28;20447;-89
2023/07/09 10:40:49;;;;;;;7.57;6.87;;;31.20;55.60;;;;;;5037403;28;20395;-88
2023/07/09 10:43:58;;;;;;;8.53;6.50;;;31.20;55.40;;;;;;5046840;28;20442;-90
2023/07/09 10:46:28;;;;;;;7.77;6.73;;;31.30;55.30;;;;;;5043780;28;20517;-88
2023/07/09 10:49:05;;;;;;;7.30;6.70;;;31.30;55.20;;;;;;5050069;28;20507;-91
2023/07/09 10:51:40;;;;;;;6.27;5.70;;;31.40;55.30;;;;;;5045406;28;20426;-89
2023/07/09 10:54:21;;;;;;;7.00;6.40;;;31.40;55.10;;;;;;5069980;28;21002;-90
2023/07/09 10:57:00;;;;;;;8.03;6.20;;;31.50;55.10;;;;;;5044187;28;20422;-90
2023/07/09 10:59:37;;;;;;;7.43;6.73;;;31.50;55.10;;;;;;5060561;28;20476;-91
2023/07/09 11:02:33;;;;;;;7.23;6.60;;;31.50;55.00;;;;;;5043663;28;20446;-91
2023/07/09 11:05:07;;;;;;;7.10;6.37;;;31.60;55.00;;;;;;5058475;28;20469;-89
2023/07/09 11:07:43;;;;;;;8.10;6.57;;;31.60;54.90;;;;;;5057399;28;20417;-88
2023/07/09 11:10:26;;;;;;;6.83;6.20;;;31.70;54.90;;;;;;5059311;28;20442;-88
2023/07/09 11:13:07;;;;;;;7.70;6.97;;;31.70;54.80;;;;;;5050338;28;21002;-90
2023/07/09 11:15:45;;;;;;;6.83;6.13;;;31.70;54.70;;;;;;5064027;28;20445;-91
2023/07/09 11:18:24;;;;;;;7.10;6.47;;;31.80;54.60;;;;;;5064544;28;20524;-90
2023/07/09 11:20:59;;;;;;;6.73;6.13;;;31.80;54.50;;;;;;5048728;28;20457;-87
2023/07/09 11:23:25;;;;;;;7.90;6.37;;;31.80;54.30;;;;;;5060897;28;20413;-91
2023/07/09 11:26:13;;;;;;;6.10;5.47;;;31.90;54.20;;;;;;5060155;28;20534;-90
2023/07/09 11:28:52;;;;;;;7.17;6.53;;;31.90;54.10;;;;;;5076225;28;20740;-89
2023/07/09 11:31:35;;;;;;;6.53;5.93;;;32.00;54.10;;;;;;5077096;28;20433;-90
2023/07/09 11:34:21;;;;;;;6.87;6.27;;;32.00;54.00;;;;;;5021356;28;20894;-90
2023/07/09 11:36:57;;;;;;;7.17;6.50;;;32.00;53.90;;;;;;5020130;28;20923;-90
2023/07/09 11:39:39;;;;;;;6.27;5.77;;;32.10;53.90;;;;;;5023060;28;20419;-90
2023/07/09 11:42:26;;;;;;;6.90;6.27;;;32.10;53.80;;;;;;5020407;28;20404;-91
2023/07/09 11:45:19;;;;;;;8.03;6.23;;;32.20;53.80;;;;;;5036956;28;20443;-91
2023/07/09 11:47:55;;;;;;;6.20;5.60;;;32.20;53.70;;;;;;5037469;28;20738;-89
2023/07/09 11:50:28;;;;;;;6.57;5.70;;;32.20;53.60;;;;;;5037031;28;20467;-89
2023/07/09 11:53:16;;;;;;;6.10;5.60;;;32.30;53.60;;;;;;5047471;28;20450;-90
2023/07/09 11:55:44;;;;;;;6.80;6.20;;;32.30;53.60;;;;;;5043190;28;20429;-90
2023/07/09 11:58:16;;;;;;;7.17;6.57;;;32.30;53.50;;;;;;5049978;28;20427;-90
2023/07/09 12:00:54;;;;;;;5.93;5.43;;;32.40;53.50;;;;;;5053923;28;20515;-89
2023/07/09 12:03:23;;;;;;;7.17;6.47;;;32.40;53.30;;;;;;5040286;28;20524;-86
2023/07/09 12:05:56;;;;;;;6.83;5.63;;;32.40;53.20;;;;;;5038778;28;20461;-90
2023/07/09 12:08:42;;;;;;;7.37;6.53;;;32.50;53.30;;;;;;5056785;28;20403;-92
2023/07/09 12:11:25;;;;;;;6.70;6.10;;;32.50;53.20;;;;;;5023465;28;20406;-90
2023/07/09 12:14:00;;;;;;;7.20;6.17;;;32.60;53.10;;;;;;5023249;28;20474;-88
2023/07/09 12:16:53;;;;;;;7.30;6.70;;;32.60;53.10;;;;;;5038806;28;20443;-89
2023/07/09 12:19:30;;;;;;;7.40;6.30;;;32.60;53.10;;;;;;5017882;28;20451;-90
2023/07/09 12:21:58;;;;;;;12.30;7.00;;;32.60;53.00;;;;;;5034434;28;20407;-90
2023/07/09 12:24:30;;;;;;;6.67;6.17;;;32.60;52.90;;;;;;5051409;28;20411;-91
2023/07/09 12:27:02;;;;;;;7.10;6.43;;;32.70;53.00;;;;;;5031459;28;20423;-88
2023/07/09 12:29:30;;;;;;;7.67;6.90;;;32.80;53.00;;;;;;5034672;28;20510;-89
2023/07/09 12:32:04;;;;;;;6.57;6.07;;;32.80;53.00;;;;;;5036995;28;20447;-90
2023/07/09 12:34:33;;;;;;;8.23;7.03;;;32.80;53.00;;;;;;5054226;28;20453;-89
2023/07/09 12:37:01;;;;;;;7.53;6.93;;;32.80;52.90;;;;;;5053566;28;20445;-91
2023/07/09 12:39:32;;;;;;;8.23;6.87;;;32.90;53.00;;;;;;5021030;28;20519;-91
2023/07/09 12:42:02;;;;;;;7.73;6.50;;;33.00;53.00;;;;;;5053928;28;20406;-90
2023/07/09 12:44:33;;;;;;;7.03;6.40;;;32.90;52.90;;;;;;5053756;28;20438;-89
2023/07/09 12:47:02;;;;;;;6.87;6.30;;;33.00;53.00;;;;;;5051119;28;20885;-89
2023/07/09 12:49:31;;;;;;;6.90;6.20;;;33.00;53.00;;;;;;5037506;28;20934;-89
2023/07/09 12:52:04;;;;;;;7.30;6.60;;;33.00;52.90;;;;;;5053924;28;20414;-90
2023/07/09 12:54:30;;;;;;;7.40;6.70;;;33.10;53.00;;;;;;5037006;28;20425;-90
2023/07/09 12:56:59;;;;;;;7.23;6.50;;;33.10;52.90;;;;;;5020108;28;20438;-91
2023/07/09 12:59:36;;;;;;;7.50;6.77;;;33.10;52.90;;;;;;5037561;28;20438;-90
2023/07/09 13:02:29;;;;;;;6.63;6.03;;;33.20;52.80;;;;;;5021615;28;20849;-87
2023/07/09 13:05:13;;;;;;;6.70;6.10;;;33.20;52.80;;;;;;5038735;28;20450;-89
2023/07/09 13:07:42;;;;;;;6.90;6.30;;;33.20;52.80;;;;;;5020701;28;20527;-88
2023/07/09 13:10:20;;;;;;;7.13;6.50;;;33.20;52.80;;;;;;5036873;28;20427;-90